createdAt,value
2018-07-10T00:02:46.728Z,9.00
2018-07-10T00:05:37.289Z,9.33
2018-07-10T00:10:33.220Z,9.23
2018-07-10T00:13:15.713Z,9.23
2018-07-10T00:15:58.311Z,8.93
2018-07-10T00:18:40.947Z,8.13
2018-07-10T00:21:23.794Z,8.97
2018-07-10T00:24:06.428Z,8.80
2018-07-10T00:26:49.072Z,8.63
2018-07-10T00:29:31.779Z,8.80
2018-07-10T00:32:14.503Z,7.77
2018-07-10T00:34:57.020Z,8.03
2018-07-10T00:37:39.913Z,8.40
2018-07-10T00:40:22.288Z,8.10
2018-07-10T00:43:09.175Z,8.23
2018-07-10T00:45:51.544Z,7.60
2018-07-10T00:48:34.850Z,7.77
2018-07-10T00:51:17.521Z,8.80
2018-07-10T00:54:00.071Z,9.60
2018-07-10T00:56:43.504Z,8.30
2018-07-10T00:59:25.907Z,7.93
2018-07-10T01:02:08.952Z,8.13
2018-07-10T01:04:52.065Z,8.83
2018-07-10T01:07:34.448Z,9.40
2018-07-10T01:10:17.332Z,8.30
2018-07-10T01:13:00.385Z,9.10
2018-07-10T01:15:42.981Z,8.50
2018-07-10T01:18:28.965Z,8.57
2018-07-10T01:21:18.178Z,9.50
2018-07-10T01:24:03.668Z,8.67
2018-07-10T01:26:46.914Z,8.83
2018-07-10T01:29:35.386Z,8.03
2018-07-10T01:32:18.237Z,8.43
2018-07-10T01:35:00.979Z,7.33
2018-07-10T01:37:43.620Z,7.30
2018-07-10T01:40:26.826Z,7.80
2018-07-10T01:43:09.238Z,7.93
2018-07-10T01:45:52.247Z,8.63
2018-07-10T01:48:34.561Z,9.40
2018-07-10T01:51:17.387Z,8.97
2018-07-10T01:54:00.299Z,9.37
2018-07-10T01:56:43.060Z,8.97
2018-07-10T01:59:25.819Z,9.30
2018-07-10T02:02:08.350Z,8.70
2018-07-10T02:04:50.694Z,8.60
2018-07-10T02:07:33.731Z,9.27
2018-07-10T02:10:16.529Z,9.77
2018-07-10T02:12:59.445Z,10.10
2018-07-10T02:15:42.101Z,9.77
2018-07-10T02:18:24.944Z,9.07
2018-07-10T02:21:09.411Z,9.60
2018-07-10T02:23:52.900Z,9.93
2018-07-10T02:26:35.578Z,10.00
2018-07-10T02:29:19.480Z,9.90
2018-07-10T02:32:02.721Z,10.60
2018-07-10T02:34:45.537Z,10.87
2018-07-10T02:37:28.358Z,10.17
2018-07-10T02:40:11.276Z,9.30
2018-07-10T02:42:53.984Z,9.90
2018-07-10T02:45:36.578Z,10.67
2018-07-10T02:48:19.449Z,10.73
2018-07-10T02:51:04.499Z,9.80
2018-07-10T02:53:47.253Z,10.37
2018-07-10T02:56:30.191Z,9.60
2018-07-10T02:59:12.492Z,9.27
2018-07-10T03:01:55.578Z,9.70
2018-07-10T03:04:40.987Z,9.83
2018-07-10T03:07:24.027Z,10.43
2018-07-10T03:10:06.414Z,10.20
2018-07-10T03:12:49.316Z,9.47
2018-07-10T03:15:32.785Z,9.60
2018-07-10T03:18:16.340Z,8.83
2018-07-10T03:20:58.572Z,8.63
2018-07-10T03:23:41.527Z,9.60
2018-07-10T03:26:24.253Z,9.57
2018-07-10T03:29:06.409Z,9.30
2018-07-10T03:31:48.680Z,8.87
2018-07-10T03:34:31.748Z,9.40
2018-07-10T03:37:14.375Z,9.97
2018-07-10T03:39:57.212Z,8.37
2018-07-10T03:42:40.559Z,8.50
2018-07-10T03:45:23.664Z,7.73
2018-07-10T03:48:06.406Z,7.97
2018-07-10T03:50:49.095Z,8.17
2018-07-10T03:53:31.927Z,8.07
2018-07-10T03:56:14.656Z,7.60
2018-07-10T03:58:58.824Z,7.13
2018-07-10T04:01:42.182Z,7.53
2018-07-10T04:04:24.986Z,8.33
2018-07-10T04:07:08.068Z,9.30
2018-07-10T04:09:54.086Z,9.00
2018-07-10T04:12:37.392Z,9.30
2018-07-10T04:15:20.069Z,10.30
2018-07-10T04:18:07.742Z,12.70
2018-07-10T04:21:05.968Z,18.60
2018-07-10T04:23:50.165Z,24.87
2018-07-10T04:26:35.327Z,26.97
2018-07-10T04:29:28.797Z,24.90
2018-07-10T04:32:13.782Z,20.30
2018-07-10T04:34:56.549Z,21.83
2018-07-10T04:37:41.491Z,16.30
2018-07-10T04:40:24.869Z,13.00
2018-07-10T04:43:14.855Z,14.93
2018-07-10T04:45:57.924Z,11.90
2018-07-10T04:48:45.053Z,13.63
2018-07-10T04:51:34.306Z,17.07
2018-07-10T04:54:42.058Z,10.17
2018-07-10T04:57:31.938Z,13.13
2018-07-10T05:00:14.598Z,11.30
2018-07-10T05:02:59.053Z,13.87
2018-07-10T05:05:42.129Z,14.37
2018-07-10T05:08:25.255Z,13.30
2018-07-10T05:11:08.254Z,12.90
2018-07-10T05:13:51.876Z,12.87
2018-07-10T05:16:35.342Z,15.10
2018-07-10T05:19:17.614Z,11.33
2018-07-10T05:22:00.608Z,12.90
2018-07-10T05:24:43.542Z,11.73
2018-07-10T05:27:26.392Z,14.43
2018-07-10T05:30:09.513Z,15.40
2018-07-10T05:32:52.038Z,12.80
2018-07-10T05:35:34.755Z,12.13
2018-07-10T05:38:22.552Z,13.03
2018-07-10T05:41:05.971Z,11.27
2018-07-10T05:43:52.052Z,11.23
2018-07-10T05:46:35.696Z,11.37
2018-07-10T05:49:19.039Z,10.30
2018-07-10T05:52:02.021Z,14.43
2018-07-10T05:54:45.691Z,15.53
2018-07-10T05:57:27.998Z,14.33
2018-07-10T06:00:11.000Z,13.67
2018-07-10T06:02:54.820Z,16.70
2018-07-10T06:05:37.351Z,13.70
2018-07-10T06:08:20.287Z,10.93
2018-07-10T06:11:03.489Z,9.07
2018-07-10T06:13:46.495Z,7.80
2018-07-10T06:16:29.720Z,9.10
2018-07-10T06:19:12.422Z,9.10
2018-07-10T06:21:57.704Z,10.33
2018-07-10T06:24:40.931Z,10.70
2018-07-10T06:27:25.713Z,9.37
2018-07-10T06:30:10.850Z,9.60
2018-07-10T06:33:00.220Z,8.83
2018-07-10T06:35:47.216Z,8.20
2018-07-10T06:38:29.739Z,9.60
2018-07-10T06:41:13.308Z,8.00
2018-07-10T06:43:58.769Z,8.70
2018-07-10T06:46:43.167Z,6.90
2018-07-10T06:49:34.954Z,7.83
2018-07-10T06:52:19.223Z,7.73
2018-07-10T06:55:22.434Z,7.53
2018-07-10T06:58:05.640Z,8.40
2018-07-10T07:00:49.552Z,7.13
2018-07-10T07:03:32.850Z,7.87
2018-07-10T07:06:15.343Z,6.90
2018-07-10T07:08:59.241Z,6.50
2018-07-10T07:11:41.691Z,6.60
2018-07-10T07:14:25.171Z,7.33
2018-07-10T07:17:08.386Z,6.57
2018-07-10T07:19:51.062Z,6.43
2018-07-10T07:22:34.812Z,6.57
2018-07-10T07:25:17.575Z,6.03
2018-07-10T07:28:00.193Z,6.53
2018-07-10T07:30:42.737Z,6.78
2018-07-10T07:33:25.631Z,5.95
2018-07-10T07:36:07.788Z,6.12
2018-07-10T07:38:51.073Z,6.40
2018-07-10T07:41:34.308Z,6.90
2018-07-10T07:44:17.228Z,6.65
2018-07-10T07:47:00.027Z,6.65
2018-07-10T07:49:42.628Z,6.03
2018-07-10T07:52:27.209Z,7.37
2018-07-10T07:55:10.317Z,6.53
2018-07-10T07:57:52.884Z,6.80
2018-07-10T08:00:35.898Z,6.80
2018-07-10T08:03:18.525Z,6.83
2018-07-10T08:06:01.762Z,6.95
2018-07-10T08:08:44.856Z,7.17
2018-07-10T08:11:27.572Z,7.58
2018-07-10T08:14:10.662Z,6.12
2018-07-10T08:16:53.338Z,7.50
2018-07-10T08:19:36.261Z,7.28
2018-07-10T08:22:25.672Z,7.28
2018-07-10T08:25:08.427Z,7.62
2018-07-10T08:27:52.018Z,6.08
2018-07-10T08:30:34.496Z,6.30
2018-07-10T08:33:17.284Z,6.05
2018-07-10T08:36:00.249Z,6.60
2018-07-10T08:38:44.994Z,6.45
2018-07-10T08:41:29.452Z,7.00
2018-07-10T08:44:12.996Z,5.90
2018-07-10T08:46:57.677Z,6.40
2018-07-10T08:49:40.998Z,6.50
2018-07-10T08:52:24.007Z,6.17
2018-07-10T08:55:06.544Z,5.97
2018-07-10T08:57:50.153Z,6.20
2018-07-10T09:00:34.336Z,6.83
2018-07-10T09:03:17.067Z,6.42
2018-07-10T09:05:59.710Z,7.05
2018-07-10T09:08:42.485Z,7.12
2018-07-10T09:11:25.400Z,6.70
2018-07-10T09:14:08.017Z,6.45
2018-07-10T09:16:50.751Z,7.08
2018-07-10T09:19:33.579Z,6.10
2018-07-10T09:22:16.719Z,6.28
2018-07-10T09:24:58.631Z,6.92
2018-07-10T09:27:40.892Z,6.28
2018-07-10T09:30:23.924Z,6.72
2018-07-10T09:33:06.579Z,6.70
2018-07-10T09:35:51.924Z,6.90
2018-07-10T09:38:36.480Z,6.83
2018-07-10T09:41:18.850Z,7.47
2018-07-10T09:44:02.256Z,8.23
2018-07-10T09:46:45.546Z,8.15
2018-07-10T09:49:28.340Z,7.25
2018-07-10T09:52:11.468Z,7.33
2018-07-10T09:54:54.615Z,8.03
2018-07-10T09:57:39.051Z,9.08
2018-07-10T10:00:33.042Z,7.80
2018-07-10T10:03:15.852Z,7.97
2018-07-10T10:05:58.564Z,7.50
2018-07-10T10:08:41.452Z,6.33
2018-07-10T10:11:23.820Z,7.55
2018-07-10T10:14:07.156Z,6.70
2018-07-10T10:16:49.847Z,6.33
2018-07-10T10:19:32.373Z,6.42
2018-07-10T10:22:15.380Z,6.35
2018-07-10T10:24:58.785Z,6.70
2018-07-10T10:27:42.696Z,6.40
2018-07-10T10:30:24.961Z,6.37
2018-07-10T10:33:08.180Z,6.78
2018-07-10T10:35:50.631Z,6.35
2018-07-10T10:38:33.750Z,6.17
2018-07-10T10:41:17.491Z,6.50
2018-07-10T10:44:00.288Z,6.40
2018-07-10T10:46:43.988Z,6.22
2018-07-10T10:49:28.734Z,6.95
2018-07-10T10:52:11.013Z,6.45
2018-07-10T10:54:53.940Z,6.95
2018-07-10T10:57:38.374Z,7.05
2018-07-10T11:00:20.642Z,6.60
2018-07-10T11:03:04.002Z,7.10
2018-07-10T11:05:46.849Z,6.87
2018-07-10T11:08:29.440Z,6.67
2018-07-10T11:11:12.312Z,7.03
2018-07-10T11:13:55.087Z,6.80
2018-07-10T11:16:43.323Z,7.12
2018-07-10T11:19:31.100Z,7.40
2018-07-10T11:22:15.750Z,7.62
2018-07-10T11:25:09.371Z,6.87
2018-07-10T11:28:08.212Z,7.58
2018-07-10T11:30:52.048Z,7.40
2018-07-10T11:33:35.108Z,7.97
2018-07-10T11:36:22.882Z,7.62
2018-07-10T11:39:08.083Z,7.67
2018-07-10T11:41:52.709Z,8.03
2018-07-10T11:44:35.835Z,7.70
2018-07-10T11:47:18.591Z,8.45
2018-07-10T11:50:02.697Z,8.33
2018-07-10T11:52:47.791Z,8.28
2018-07-10T11:55:30.460Z,8.28
2018-07-10T11:58:13.179Z,8.33
2018-07-10T12:00:56.039Z,8.10
2018-07-10T12:03:40.286Z,9.43
2018-07-10T12:06:22.730Z,9.05
2018-07-10T12:09:05.781Z,10.68
2018-07-10T12:11:48.381Z,10.30
2018-07-10T12:14:31.213Z,11.22
2018-07-10T12:17:14.065Z,11.00
2018-07-10T12:19:57.113Z,10.25
2018-07-10T12:22:40.438Z,11.03
2018-07-10T12:25:23.582Z,8.88
2018-07-10T12:28:07.256Z,7.53
2018-07-10T12:30:50.203Z,8.68
2018-07-10T12:33:32.988Z,8.00
2018-07-10T12:36:15.597Z,7.70
2018-07-10T12:38:58.222Z,9.08
2018-07-10T12:41:41.109Z,7.33
2018-07-10T12:44:23.987Z,7.10
2018-07-10T12:47:07.017Z,6.92
2018-07-10T12:49:50.208Z,6.62
2018-07-10T12:52:32.685Z,6.20
2018-07-10T12:55:16.287Z,7.30
2018-07-10T12:57:59.469Z,6.67
2018-07-10T13:00:42.112Z,7.53
2018-07-10T13:03:25.045Z,6.67
2018-07-10T13:06:08.081Z,7.40
2018-07-10T13:08:50.572Z,6.67
2018-07-10T13:11:33.683Z,6.97
2018-07-10T13:14:16.361Z,6.50
2018-07-10T13:16:59.476Z,6.58
2018-07-10T13:19:42.196Z,6.45
2018-07-10T13:22:25.385Z,6.53
2018-07-10T13:25:08.031Z,6.80
2018-07-10T13:27:51.350Z,6.37
2018-07-10T13:30:33.848Z,6.50
2018-07-10T13:33:17.003Z,6.17
2018-07-10T13:35:59.871Z,6.10
2018-07-10T13:38:42.903Z,6.75
2018-07-10T13:41:25.564Z,5.45
2018-07-10T13:44:08.300Z,5.42
2018-07-10T13:46:51.180Z,5.50
2018-07-10T13:49:33.951Z,5.62
2018-07-10T13:52:16.739Z,5.12
2018-07-10T13:55:05.396Z,5.30
2018-07-10T13:58:15.900Z,5.75
2018-07-10T14:01:03.995Z,5.28
2018-07-10T14:03:47.507Z,6.12
2018-07-10T14:06:29.880Z,5.95
2018-07-10T14:09:12.598Z,5.47
2018-07-10T14:11:55.842Z,5.42
2018-07-10T14:14:38.580Z,5.33
2018-07-10T14:17:21.337Z,12.53
2018-07-10T14:20:04.681Z,5.42
2018-07-10T14:22:47.871Z,5.25
2018-07-10T14:25:30.785Z,5.03
2018-07-10T14:28:14.165Z,5.00
2018-07-10T14:30:57.909Z,5.00
2018-07-10T14:33:40.486Z,5.03
2018-07-10T14:36:23.027Z,4.80
2018-07-10T14:39:06.230Z,5.08
2018-07-10T14:41:49.291Z,5.75
2018-07-10T14:44:32.698Z,4.10
2018-07-10T14:47:15.823Z,4.10
2018-07-10T14:49:58.374Z,3.00
2018-07-10T14:52:40.952Z,2.80
2018-07-10T14:55:23.813Z,2.62
2018-07-10T14:58:07.692Z,3.08
2018-07-10T15:00:50.772Z,2.87
2018-07-10T15:03:33.323Z,2.75
2018-07-10T15:06:16.101Z,2.50
2018-07-10T15:08:58.729Z,2.67
2018-07-10T15:11:42.522Z,2.42
2018-07-10T15:14:25.733Z,3.17
2018-07-10T15:17:13.639Z,2.50
2018-07-10T15:19:56.180Z,2.65
2018-07-10T15:22:41.731Z,2.60
2018-07-10T15:25:24.603Z,2.95
2018-07-10T15:28:07.593Z,2.62
2018-07-10T15:30:50.062Z,2.80
2018-07-10T15:33:33.012Z,2.70
2018-07-10T15:36:16.258Z,2.58
2018-07-10T15:38:58.931Z,2.83
2018-07-10T15:41:41.626Z,2.30
2018-07-10T15:44:24.476Z,3.00
2018-07-10T15:47:07.378Z,2.92
2018-07-10T15:49:50.154Z,2.50
2018-07-10T15:52:32.981Z,2.98
2018-07-10T15:55:19.377Z,2.55
2018-07-10T15:58:01.850Z,2.72
2018-07-10T16:00:45.157Z,2.35
2018-07-10T16:03:28.410Z,2.60
2018-07-10T16:06:11.144Z,2.52
2018-07-10T16:09:00.934Z,2.58
2018-07-10T16:11:43.774Z,2.92
2018-07-10T16:14:34.554Z,2.67
2018-07-10T16:17:26.606Z,2.75
2018-07-10T16:20:10.857Z,2.92
2018-07-10T16:22:53.444Z,3.08
2018-07-10T16:25:36.295Z,2.40
2018-07-10T16:28:23.373Z,2.60
2018-07-10T16:31:06.061Z,3.05
2018-07-10T16:33:50.271Z,2.30
2018-07-10T16:36:32.530Z,2.40
2018-07-10T16:39:15.344Z,2.50
2018-07-10T16:42:03.094Z,3.58
2018-07-10T16:44:46.501Z,2.85
2018-07-10T16:47:34.410Z,2.80
2018-07-10T16:50:17.109Z,2.70
2018-07-10T16:53:00.591Z,2.45
2018-07-10T16:55:44.448Z,3.15
2018-07-10T16:58:27.901Z,2.40
2018-07-10T17:01:11.884Z,2.40
2018-07-10T17:03:55.233Z,3.00
2018-07-10T17:06:40.314Z,2.50
2018-07-10T17:09:23.102Z,3.22
2018-07-10T17:12:06.582Z,3.33
2018-07-10T17:14:53.484Z,2.75
2018-07-10T17:17:36.148Z,2.67
2018-07-10T17:20:18.639Z,3.50
2018-07-10T17:23:02.596Z,2.95
2018-07-10T17:25:45.597Z,2.95
2018-07-10T17:28:28.389Z,2.75
2018-07-10T17:31:10.993Z,2.70
2018-07-10T17:33:53.858Z,3.08
2018-07-10T17:36:36.412Z,3.10
2018-07-10T17:39:19.306Z,3.05
2018-07-10T17:42:04.153Z,3.20
2018-07-10T17:44:46.951Z,3.90
2018-07-10T17:47:29.639Z,3.40
2018-07-10T17:50:12.461Z,3.67
2018-07-10T17:52:55.322Z,3.90
2018-07-10T17:55:37.930Z,4.20
2018-07-10T17:58:22.026Z,3.80
2018-07-10T18:01:04.779Z,4.77
2018-07-10T18:03:47.180Z,3.83
2018-07-10T18:06:36.338Z,4.53
2018-07-10T18:09:18.529Z,4.63
2018-07-10T18:12:00.932Z,4.30
2018-07-10T18:14:44.076Z,4.17
2018-07-10T18:17:27.032Z,5.60
2018-07-10T18:20:09.937Z,5.20
2018-07-10T18:22:52.699Z,4.37
2018-07-10T18:25:35.435Z,4.80
2018-07-10T18:28:18.156Z,5.60
2018-07-10T18:31:01.016Z,4.97
2018-07-10T18:33:43.912Z,4.63
2018-07-10T18:36:26.232Z,4.73
2018-07-10T18:39:09.032Z,11.43
2018-07-10T18:41:51.738Z,5.37
2018-07-10T18:44:34.836Z,4.70
2018-07-10T18:47:17.869Z,4.87
2018-07-10T18:50:01.376Z,4.90
2018-07-10T18:52:44.472Z,4.83
2018-07-10T18:55:27.617Z,5.30
2018-07-10T18:58:26.193Z,4.67
2018-07-10T19:03:15.405Z,4.93
2018-07-10T19:06:02.094Z,4.80
2018-07-10T19:08:46.679Z,5.50
2018-07-10T19:11:29.409Z,4.50
2018-07-10T19:14:12.312Z,4.83
2018-07-10T19:16:54.721Z,5.20
2018-07-10T19:19:38.326Z,4.87
2018-07-10T19:22:23.252Z,5.00
2018-07-10T19:25:05.912Z,4.93
2018-07-10T19:27:52.112Z,4.77
2018-07-10T19:30:46.696Z,5.03
2018-07-10T19:33:30.127Z,4.50
2018-07-10T19:36:13.765Z,5.30
2018-07-10T19:38:56.001Z,6.40
2018-07-10T19:41:38.318Z,5.60
2018-07-10T19:44:21.384Z,6.03
2018-07-10T19:47:04.799Z,5.30
2018-07-10T19:49:50.514Z,5.13
2018-07-10T19:52:34.092Z,7.07
2018-07-10T19:55:16.945Z,6.20
2018-07-10T19:58:11.065Z,6.60
2018-07-10T20:02:02.529Z,6.50
2018-07-10T20:05:16.496Z,6.03
2018-07-10T20:08:08.853Z,7.33
2018-07-10T20:10:57.052Z,6.97
2018-07-10T20:13:48.676Z,5.50
2018-07-10T20:16:39.296Z,5.00
2018-07-10T20:20:33.902Z,5.87
2018-07-10T20:23:21.876Z,4.63
2018-07-10T20:26:10.710Z,6.13
2018-07-10T20:29:03.972Z,6.00
2018-07-10T20:31:58.289Z,5.30
2018-07-10T20:34:56.512Z,5.80
2018-07-10T20:37:39.612Z,5.20
2018-07-10T20:40:30.152Z,5.40
2018-07-10T20:43:15.765Z,5.57
2018-07-10T20:45:58.736Z,5.97
2018-07-10T20:48:46.822Z,6.20
2018-07-10T20:51:33.986Z,5.77
2018-07-10T20:54:19.100Z,6.10
2018-07-10T20:57:15.648Z,5.93
2018-07-10T21:00:10.993Z,5.77
2018-07-10T21:03:17.845Z,5.60
2018-07-10T21:06:13.055Z,6.37
2018-07-10T21:09:12.689Z,6.83
2018-07-10T21:14:15.248Z,7.07
2018-07-10T21:17:12.439Z,6.47
2018-07-10T21:20:05.864Z,5.30
2018-07-10T21:23:15.583Z,8.27
2018-07-10T21:26:06.502Z,6.50
2018-07-10T21:28:55.225Z,8.03
2018-07-10T21:31:43.880Z,6.70
2018-07-10T21:34:47.890Z,7.60
2018-07-10T21:39:13.989Z,6.40
2018-07-10T21:42:22.833Z,7.97
2018-07-10T21:45:13.544Z,7.97
2018-07-10T21:48:11.121Z,6.53
2018-07-10T21:50:54.430Z,7.10
2018-07-10T21:53:37.688Z,9.00
2018-07-10T21:56:20.066Z,6.73
2018-07-10T21:59:04.178Z,6.80
2018-07-10T22:01:53.810Z,5.83
2018-07-10T22:04:37.480Z,7.00
2018-07-10T22:07:20.206Z,7.57
2018-07-10T22:10:05.597Z,7.60
2018-07-10T22:12:48.599Z,6.47
2018-07-10T22:15:31.269Z,6.90
2018-07-10T22:18:14.074Z,6.27
2018-07-10T22:20:56.716Z,6.60
2018-07-10T22:23:39.827Z,6.77
2018-07-10T22:26:22.264Z,7.10
2018-07-10T22:29:05.028Z,7.60
2018-07-10T22:31:52.921Z,7.50
2018-07-10T22:34:35.751Z,9.13
2018-07-10T22:37:18.579Z,7.70
2018-07-10T22:40:01.523Z,7.70
2018-07-10T22:42:44.645Z,6.63
2018-07-10T22:45:28.608Z,6.77
2018-07-10T22:48:10.984Z,6.97
2018-07-10T22:50:53.661Z,6.60
2018-07-10T22:53:36.371Z,7.77
2018-07-10T22:56:20.370Z,7.17
2018-07-10T22:59:03.926Z,7.28
2018-07-10T23:01:46.370Z,6.67
2018-07-10T23:04:29.276Z,6.60
2018-07-10T23:07:11.998Z,6.37
2018-07-10T23:09:55.142Z,6.70
2018-07-10T23:12:42.104Z,7.30
2018-07-10T23:15:26.111Z,7.40
2018-07-10T23:18:12.584Z,7.40
2018-07-10T23:20:55.844Z,6.80
2018-07-10T23:23:38.586Z,6.87
2018-07-10T23:26:21.102Z,6.70
2018-07-10T23:29:04.544Z,7.50
2018-07-10T23:31:47.728Z,6.37
2018-07-10T23:34:30.653Z,8.70
2018-07-10T23:37:14.401Z,7.40
2018-07-10T23:40:03.036Z,7.23
2018-07-10T23:42:46.089Z,6.73
2018-07-10T23:45:28.875Z,6.83
2018-07-10T23:48:11.591Z,6.80
2018-07-10T23:50:54.371Z,6.30
2018-07-10T23:53:41.289Z,7.20
2018-07-10T23:56:24.244Z,7.13
2018-07-10T23:59:06.828Z,6.07
